Time;durP1;ratioP1;P1;durP2;ratioP2;P2;SDS_P1;SDS_P2;PMS_P1;PMS_P2;Temp;Humidity;BMP_temperature;BMP_pressure;BME280_temperature;BME280_humidity;BME280_pressure;Samples;Min_cycle;Max_cycle;Signal;HPM_P1;HPM_P2
2020/12/03 00:02:01;;;;;;;85.37;44.40;;;5.20;99.90;;;;;;5004096;28;20501;-74
2020/12/03 00:04:28;;;;;;;93.83;42.63;;;5.30;99.90;;;;;;5006868;28;20469;-74
2020/12/03 00:06:56;;;;;;;104.57;45.93;;;5.20;99.90;;;;;;5005500;28;21055;-74
2020/12/03 00:09:24;;;;;;;108.33;44.50;;;5.20;99.90;;;;;;5002646;28;20457;-74
2020/12/03 00:11:52;;;;;;;90.97;46.80;;;5.30;99.90;;;;;;5003728;28;20597;-74
2020/12/03 00:14:20;;;;;;;91.53;43.10;;;5.30;99.90;;;;;;5009076;28;20465;-74
2020/12/03 00:16:48;;;;;;;88.57;42.70;;;5.30;99.90;;;;;;5002346;28;20482;-74
2020/12/03 00:19:18;;;;;;;87.07;43.73;;;5.30;99.90;;;;;;5002929;28;20470;-74
2020/12/03 00:21:47;;;;;;;78.23;42.70;;;5.30;99.90;;;;;;5006404;28;20488;-74
2020/12/03 00:24:16;;;;;;;85.90;43.30;;;5.30;99.90;;;;;;5002228;28;20497;-74
2020/12/03 00:26:43;;;;;;;91.90;43.70;;;5.30;99.90;;;;;;5009163;28;20750;-75
2020/12/03 00:29:10;;;;;;;82.43;42.80;;;5.30;99.90;;;;;;5005480;28;20472;-74
2020/12/03 00:31:36;;;;;;;87.80;44.00;;;5.30;99.90;;;;;;5001095;28;20555;-75
2020/12/03 00:34:05;;;;;;;83.40;42.40;;;5.30;99.90;;;;;;5003252;28;20470;-74
2020/12/03 00:36:33;;;;;;;81.43;44.03;;;5.30;99.90;;;;;;4999074;28;20462;-74
2020/12/03 00:39:02;;;;;;;79.37;42.00;;;5.30;99.90;;;;;;5005521;28;20854;-75
2020/12/03 00:41:28;;;;;;;77.57;40.70;;;5.40;99.90;;;;;;5001047;28;20470;-74
2020/12/03 00:43:54;;;;;;;83.20;42.53;;;5.40;99.90;;;;;;5003055;28;20804;-74
2020/12/03 00:46:26;;;;;;;82.40;42.70;;;5.40;99.90;;;;;;5001830;28;20492;-74
2020/12/03 00:48:52;;;;;;;72.67;41.03;;;5.40;99.90;;;;;;5004324;28;20466;-75
2020/12/03 00:51:18;;;;;;;75.97;41.57;;;5.40;99.90;;;;;;4998308;28;20498;-74
2020/12/03 00:53:46;;;;;;;76.57;40.23;;;5.40;99.90;;;;;;5005220;28;20468;-75
2020/12/03 00:56:12;;;;;;;85.00;39.00;;;5.40;99.90;;;;;;5001002;28;20505;-74
2020/12/03 00:58:40;;;;;;;76.13;39.87;;;5.40;99.90;;;;;;5000648;28;21039;-74
2020/12/03 01:01:07;;;;;;;81.53;39.63;;;5.50;99.90;;;;;;5002771;28;21351;-74
2020/12/03 01:03:33;;;;;;;76.87;40.50;;;5.50;99.90;;;;;;5003794;28;20978;-74
2020/12/03 01:05:59;;;;;;;83.00;40.07;;;5.50;99.90;;;;;;5002103;28;20458;-74
2020/12/03 01:08:25;;;;;;;83.20;39.10;;;5.50;99.90;;;;;;5006632;28;20465;-75
2020/12/03 01:10:55;;;;;;;78.30;40.77;;;5.50;99.90;;;;;;5001137;28;20500;-74
2020/12/03 01:13:24;;;;;;;84.17;38.70;;;5.50;99.90;;;;;;5002123;28;20466;-75
2020/12/03 01:15:50;;;;;;;76.93;40.07;;;5.50;99.90;;;;;;5001467;28;20474;-75
2020/12/03 01:18:18;;;;;;;88.80;41.70;;;5.50;99.90;;;;;;5002382;28;20454;-75
2020/12/03 01:20:44;;;;;;;81.50;41.80;;;5.50;99.90;;;;;;5000702;28;20470;-74
2020/12/03 01:23:11;;;;;;;71.73;40.70;;;5.50;99.90;;;;;;5004319;28;21482;-74
2020/12/03 01:25:39;;;;;;;87.37;42.40;;;5.50;99.90;;;;;;5002745;28;20539;-74
2020/12/03 01:28:07;;;;;;;82.03;40.97;;;5.50;99.90;;;;;;5001684;28;20556;-74
2020/12/03 01:30:33;;;;;;;77.20;41.40;;;5.40;99.90;;;;;;5003214;28;20493;-74
2020/12/03 01:33:02;;;;;;;79.33;43.00;;;5.50;99.90;;;;;;5001747;28;21052;-74
2020/12/03 01:35:29;;;;;;;73.13;38.27;;;5.50;99.90;;;;;;4997592;28;20519;-74
2020/12/03 01:37:55;;;;;;;84.57;40.17;;;5.50;99.90;;;;;;5003852;28;20849;-74
2020/12/03 01:40:25;;;;;;;84.37;39.10;;;5.50;99.90;;;;;;5004512;28;20462;-75
2020/12/03 01:42:53;;;;;;;78.20;38.00;;;5.50;99.90;;;;;;5001167;28;20575;-74
2020/12/03 01:45:53;;;;;;;82.40;40.00;;;5.50;99.90;;;;;;5000998;28;20468;-75
2020/12/03 01:48:30;;;;;;;72.67;40.10;;;5.50;99.90;;;;;;4998429;28;20462;-75
2020/12/03 01:50:57;;;;;;;77.17;39.53;;;5.50;99.90;;;;;;5003593;28;20539;-75
2020/12/03 01:53:25;;;;;;;89.87;40.20;;;5.50;99.90;;;;;;5003692;28;20459;-75
2020/12/03 01:55:55;;;;;;;80.67;40.13;;;5.50;99.90;;;;;;4999027;28;20458;-75
2020/12/03 01:58:32;;;;;;;87.60;38.83;;;5.50;99.90;;;;;;5000676;28;20498;-74
2020/12/03 02:01:02;;;;;;;79.83;38.60;;;5.50;99.90;;;;;;5003570;28;20473;-74
2020/12/03 02:03:29;;;;;;;82.10;39.07;;;5.50;99.90;;;;;;5000591;28;20471;-75
2020/12/03 02:05:56;;;;;;;80.27;38.50;;;5.50;99.90;;;;;;5000110;28;20461;-74
2020/12/03 02:08:22;;;;;;;79.33;41.13;;;5.50;99.90;;;;;;5003094;28;20478;-74
2020/12/03 02:10:49;;;;;;;72.37;37.70;;;5.50;99.90;;;;;;5002552;28;20492;-75
2020/12/03 02:13:15;;;;;;;82.03;39.47;;;5.50;99.90;;;;;;4998965;28;20474;-74
2020/12/03 02:15:41;;;;;;;70.60;39.17;;;5.60;99.90;;;;;;5005181;28;20458;-74
2020/12/03 02:18:09;;;;;;;82.50;38.90;;;5.60;99.90;;;;;;5005581;28;20464;-75
2020/12/03 02:20:36;;;;;;;76.40;39.37;;;5.60;99.90;;;;;;5000139;28;20822;-75
2020/12/03 02:23:10;;;;;;;69.37;38.10;;;5.60;99.90;;;;;;5005577;28;20466;-75
2020/12/03 02:25:37;;;;;;;72.30;37.40;;;5.60;99.90;;;;;;5006916;28;20488;-74
2020/12/03 02:28:06;;;;;;;74.10;38.77;;;5.60;99.90;;;;;;5004140;28;20548;-75
2020/12/03 02:30:32;;;;;;;62.27;36.13;;;5.60;99.90;;;;;;5004980;28;20520;-75
2020/12/03 02:32:59;;;;;;;69.77;38.90;;;5.60;99.90;;;;;;5006231;28;20468;-74
2020/12/03 02:35:26;;;;;;;71.33;36.80;;;5.60;99.90;;;;;;5005747;28;20856;-75
2020/12/03 02:37:53;;;;;;;82.60;39.10;;;5.70;99.90;;;;;;5008197;28;20481;-74
2020/12/03 02:40:20;;;;;;;68.23;37.47;;;5.70;99.90;;;;;;5004152;28;21050;-74
2020/12/03 02:42:46;;;;;;;89.33;41.10;;;5.70;99.90;;;;;;5004741;28;20489;-75
2020/12/03 02:45:16;;;;;;;73.80;37.60;;;5.60;99.90;;;;;;5000291;28;20475;-75
2020/12/03 02:47:42;;;;;;;87.33;41.00;;;5.60;99.90;;;;;;5000252;28;20478;-75
2020/12/03 02:50:09;;;;;;;67.80;38.00;;;5.70;99.90;;;;;;5005738;28;20470;-74
2020/12/03 02:52:36;;;;;;;66.37;37.57;;;5.80;99.90;;;;;;5003284;28;20485;-75
2020/12/03 02:55:06;;;;;;;70.37;39.07;;;5.80;99.90;;;;;;5005676;28;20549;-74
2020/12/03 02:57:32;;;;;;;70.53;37.83;;;5.80;99.90;;;;;;5007299;28;20809;-75
2020/12/03 02:59:58;;;;;;;62.53;36.80;;;5.80;99.90;;;;;;5002976;28;20474;-74
2020/12/03 03:02:26;;;;;;;76.00;39.47;;;5.90;99.90;;;;;;5005117;28;20504;-74
2020/12/03 03:04:52;;;;;;;60.17;36.17;;;6.00;99.90;;;;;;5004584;28;20462;-74
2020/12/03 03:07:19;;;;;;;67.07;35.23;;;6.00;99.90;;;;;;5001545;28;20559;-74
2020/12/03 03:09:45;;;;;;;63.87;37.20;;;6.00;99.90;;;;;;5006862;28;20472;-74
2020/12/03 03:12:13;;;;;;;63.97;37.97;;;5.90;99.90;;;;;;5002638;28;20849;-74
2020/12/03 03:14:39;;;;;;;68.03;37.03;;;5.90;99.90;;;;;;5003921;28;20461;-74
2020/12/03 03:17:06;;;;;;;73.70;37.27;;;5.90;99.90;;;;;;5004956;28;20477;-74
2020/12/03 03:19:33;;;;;;;69.23;35.83;;;5.90;99.90;;;;;;5004719;28;20496;-75
2020/12/03 03:22:00;;;;;;;68.90;37.73;;;5.90;99.90;;;;;;5000765;28;20470;-75
2020/12/03 03:24:26;;;;;;;75.37;39.40;;;5.80;99.90;;;;;;5002388;28;20569;-74
2020/12/03 03:26:52;;;;;;;67.83;36.53;;;5.90;99.90;;;;;;5000618;28;20969;-74
2020/12/03 03:29:20;;;;;;;63.30;38.70;;;5.90;99.90;;;;;;5001689;28;20504;-74
2020/12/03 03:31:46;;;;;;;66.73;36.40;;;5.90;99.90;;;;;;5004685;28;20522;-74
2020/12/03 03:34:12;;;;;;;64.37;36.87;;;5.90;99.90;;;;;;5003660;28;20817;-74
2020/12/03 03:36:39;;;;;;;72.73;38.17;;;5.80;99.90;;;;;;5003015;28;20488;-75
2020/12/03 03:39:16;;;;;;;66.00;36.33;;;5.80;99.90;;;;;;5003966;28;20570;-74
2020/12/03 03:41:43;;;;;;;57.67;33.90;;;5.90;99.90;;;;;;5004159;28;20458;-75
2020/12/03 03:44:09;;;;;;;58.40;36.73;;;5.80;99.90;;;;;;5001119;28;20497;-75
2020/12/03 03:46:38;;;;;;;60.60;35.07;;;5.80;99.90;;;;;;5004889;28;21364;-74
2020/12/03 03:49:04;;;;;;;64.37;35.93;;;5.80;99.90;;;;;;5005060;28;20477;-75
2020/12/03 03:51:31;;;;;;;58.03;35.33;;;5.80;99.90;;;;;;5000070;28;20551;-74
2020/12/03 03:53:57;;;;;;;61.33;37.30;;;5.70;99.90;;;;;;5001045;28;20488;-75
2020/12/03 03:56:25;;;;;;;59.57;33.90;;;5.80;99.90;;;;;;5001641;28;20472;-74
2020/12/03 03:58:51;;;;;;;61.27;34.20;;;5.70;99.90;;;;;;5005345;28;20483;-74
2020/12/03 04:01:18;;;;;;;56.47;34.90;;;5.60;99.90;;;;;;5002016;28;20893;-75
2020/12/03 04:03:45;;;;;;;60.43;32.93;;;5.60;99.90;;;;;;5002767;28;20462;-74
2020/12/03 04:06:12;;;;;;;54.90;34.30;;;5.60;99.90;;;;;;5002227;28;20463;-74
2020/12/03 04:08:39;;;;;;;49.17;32.93;;;5.60;99.90;;;;;;5003046;28;20461;-74
2020/12/03 04:11:05;;;;;;;53.63;34.27;;;5.60;99.90;;;;;;5002186;28;21048;-74
2020/12/03 04:13:33;;;;;;;63.53;34.23;;;5.60;99.90;;;;;;5001171;28;20466;-74
2020/12/03 04:15:59;;;;;;;56.90;33.00;;;5.60;99.90;;;;;;5003246;28;20543;-74
2020/12/03 04:18:27;;;;;;;57.60;33.10;;;5.60;99.90;;;;;;5000371;28;20468;-74
2020/12/03 04:20:58;;;;;;;56.00;32.27;;;5.50;99.90;;;;;;5004552;28;20461;-74
2020/12/03 04:23:25;;;;;;;54.63;33.00;;;5.60;99.90;;;;;;5003644;28;20466;-75
2020/12/03 04:25:52;;;;;;;59.07;34.80;;;5.50;99.90;;;;;;5006341;28;20482;-75
2020/12/03 04:28:19;;;;;;;52.87;32.60;;;5.60;99.90;;;;;;5001387;28;20927;-75
2020/12/03 04:30:45;;;;;;;56.30;33.93;;;5.60;99.90;;;;;;5000648;28;20473;-73
2020/12/03 04:33:13;;;;;;;58.17;31.50;;;5.50;99.90;;;;;;5002224;28;20979;-75
2020/12/03 04:35:40;;;;;;;50.77;33.00;;;5.50;99.90;;;;;;5000260;28;20543;-75
2020/12/03 04:38:08;;;;;;;53.33;31.97;;;5.40;99.90;;;;;;5005288;28;20845;-75
2020/12/03 04:40:37;;;;;;;49.00;30.47;;;5.40;99.90;;;;;;5001665;28;20548;-74
2020/12/03 04:43:09;;;;;;;44.30;30.50;;;5.50;99.90;;;;;;5001696;28;20569;-74
2020/12/03 04:45:41;;;;;;;43.60;30.27;;;5.60;99.90;;;;;;4998435;28;20457;-74
2020/12/03 04:48:20;;;;;;;51.80;29.50;;;5.60;99.90;;;;;;5001395;28;20478;-74
2020/12/03 04:50:55;;;;;;;47.73;29.67;;;5.60;99.90;;;;;;5001746;28;20962;-74
2020/12/03 04:53:37;;;;;;;43.77;29.30;;;5.60;99.90;;;;;;5006199;28;20453;-74
2020/12/03 04:56:07;;;;;;;44.17;29.83;;;5.60;99.90;;;;;;5000068;28;20469;-75
2020/12/03 04:58:47;;;;;;;49.23;28.97;;;5.60;99.90;;;;;;4996446;28;20954;-74
2020/12/03 05:01:55;;;;;;;40.00;28.33;;;5.60;99.90;;;;;;5003122;28;20516;-74
2020/12/03 05:04:26;;;;;;;43.20;27.80;;;5.60;99.90;;;;;;5000033;28;20715;-74
2020/12/03 05:07:00;;;;;;;36.50;28.73;;;5.60;99.90;;;;;;5000836;28;20455;-74
2020/12/03 05:09:36;;;;;;;41.53;28.30;;;5.60;99.90;;;;;;4996644;28;20458;-75
2020/12/03 05:12:11;;;;;;;43.80;29.37;;;5.50;99.90;;;;;;5004957;28;20514;-74
2020/12/03 05:14:44;;;;;;;46.70;27.57;;;5.50;99.90;;;;;;5001206;28;20476;-74
2020/12/03 05:17:24;;;;;;;45.30;29.03;;;5.40;99.90;;;;;;5007113;28;20837;-75
2020/12/03 05:20:24;;;;;;;41.97;27.53;;;5.40;99.90;;;;;;5006362;28;20474;-74
2020/12/03 05:23:01;;;;;;;41.03;27.93;;;5.40;99.90;;;;;;5007663;28;20466;-75
2020/12/03 05:25:28;;;;;;;38.30;25.50;;;5.40;99.90;;;;;;5002731;28;20601;-74
2020/12/03 05:27:59;;;;;;;39.07;27.33;;;5.40;99.90;;;;;;5001006;28;20654;-75
2020/12/03 05:30:26;;;;;;;38.53;25.90;;;5.30;99.90;;;;;;4998823;28;20461;-75
2020/12/03 05:32:54;;;;;;;37.77;26.67;;;5.40;99.90;;;;;;4998628;28;20490;-75
2020/12/03 05:35:20;;;;;;;37.20;26.80;;;5.40;99.90;;;;;;5002289;28;20468;-74
2020/12/03 05:37:47;;;;;;;36.70;26.90;;;5.40;99.90;;;;;;5003726;28;20468;-75
2020/12/03 05:40:21;;;;;;;33.93;25.00;;;5.40;99.90;;;;;;5003100;28;20454;-74
2020/12/03 05:42:52;;;;;;;33.60;26.07;;;5.30;99.90;;;;;;5002420;28;20525;-74
2020/12/03 05:45:22;;;;;;;34.03;26.63;;;5.40;99.90;;;;;;4996419;28;20489;-74
2020/12/03 05:47:51;;;;;;;33.53;26.20;;;5.40;99.90;;;;;;4999050;28;20464;-75
2020/12/03 05:50:35;;;;;;;32.87;27.70;;;5.40;99.90;;;;;;5002337;28;20462;-74
2020/12/03 05:53:04;;;;;;;34.13;26.73;;;5.40;99.90;;;;;;4999784;28;20541;-74
2020/12/03 05:55:33;;;;;;;37.70;26.90;;;5.40;99.90;;;;;;5006049;28;20453;-74
2020/12/03 05:58:17;;;;;;;29.67;26.33;;;5.50;99.90;;;;;;5001547;28;20470;-74
2020/12/03 06:00:45;;;;;;;32.93;27.07;;;5.50;99.90;;;;;;4997538;28;20465;-74
2020/12/03 06:03:29;;;;;;;32.10;27.27;;;5.50;99.90;;;;;;4999850;28;20468;-74
2020/12/03 06:06:23;;;;;;;31.13;26.13;;;5.40;99.90;;;;;;5000508;28;20470;-74
2020/12/03 06:09:03;;;;;;;32.17;28.13;;;5.40;99.90;;;;;;4998651;28;20548;-74
2020/12/03 06:11:45;;;;;;;29.27;25.90;;;5.40;99.90;;;;;;5000385;28;20497;-74
2020/12/03 06:14:47;;;;;;;29.17;26.10;;;5.40;99.90;;;;;;5001533;28;20459;-74
2020/12/03 06:17:29;;;;;;;31.33;25.83;;;5.30;99.90;;;;;;5009527;28;20461;-74
2020/12/03 06:20:08;;;;;;;28.57;24.33;;;5.30;99.90;;;;;;5003961;28;20466;-74
2020/12/03 06:22:52;;;;;;;27.87;24.90;;;5.30;99.90;;;;;;5003963;28;20475;-74
2020/12/03 06:25:27;;;;;;;30.97;26.17;;;5.30;99.90;;;;;;5003998;28;20536;-74
2020/12/03 06:28:20;;;;;;;35.80;26.70;;;5.30;99.90;;;;;;4999204;28;20462;-74
2020/12/03 06:30:54;;;;;;;33.90;27.30;;;5.20;99.90;;;;;;5001843;28;20515;-74
2020/12/03 06:33:41;;;;;;;28.93;25.80;;;5.20;99.90;;;;;;5003199;28;20462;-74
2020/12/03 06:36:23;;;;;;;31.00;26.50;;;5.20;99.90;;;;;;4996043;28;20472;-74
2020/12/03 06:39:04;;;;;;;37.57;25.77;;;5.20;99.90;;;;;;4995965;28;20473;-74
2020/12/03 06:41:39;;;;;;;31.13;24.53;;;5.20;99.90;;;;;;5000980;28;20480;-74
2020/12/03 06:44:14;;;;;;;31.17;26.50;;;5.30;99.90;;;;;;4997367;28;20548;-74
2020/12/03 06:47:08;;;;;;;27.40;24.63;;;5.40;99.90;;;;;;4996745;28;20612;-74
2020/12/03 06:50:01;;;;;;;26.60;24.17;;;5.50;99.90;;;;;;5001407;28;20867;-74
2020/12/03 06:52:54;;;;;;;27.20;24.20;;;5.50;99.90;;;;;;4997970;28;20493;-74
2020/12/03 06:55:49;;;;;;;26.50;24.00;;;5.60;99.90;;;;;;4994652;28;20542;-74
2020/12/03 06:58:45;;;;;;;28.27;25.20;;;5.60;99.90;;;;;;4992559;28;20516;-74
2020/12/03 07:01:43;;;;;;;26.17;23.60;;;5.50;99.90;;;;;;4998874;28;20474;-74
2020/12/03 07:04:49;;;;;;;26.03;23.50;;;5.50;99.90;;;;;;5003435;28;20472;-74
2020/12/03 07:07:34;;;;;;;26.23;23.57;;;5.50;99.90;;;;;;5005888;28;20473;-75
2020/12/03 07:10:26;;;;;;;25.90;23.30;;;5.50;99.90;;;;;;4999052;28;20458;-75
2020/12/03 07:13:26;;;;;;;26.30;23.80;;;5.50;99.90;;;;;;4999943;28;20851;-74
2020/12/03 07:16:14;;;;;;;26.13;24.00;;;5.40;99.90;;;;;;4998627;28;20871;-75
2020/12/03 07:19:21;;;;;;;25.27;22.67;;;5.40;99.90;;;;;;5004779;28;20691;-75
2020/12/03 07:22:09;;;;;;;25.73;22.97;;;5.40;99.90;;;;;;5002642;28;20492;-75
2020/12/03 07:24:40;;;;;;;25.83;23.47;;;5.40;99.90;;;;;;5006235;28;20486;-74
2020/12/03 07:28:01;;;;;;;28.70;23.00;;;5.40;99.90;;;;;;5010241;28;20468;-74
2020/12/03 07:30:40;;;;;;;28.97;21.77;;;5.30;99.90;;;;;;5001084;28;20469;-75
2020/12/03 07:33:14;;;;;;;24.97;22.67;;;5.30;99.90;;;;;;5004838;28;21015;-75
2020/12/03 07:35:47;;;;;;;25.30;22.57;;;5.30;99.90;;;;;;5006077;28;20465;-74
2020/12/03 07:38:21;;;;;;;26.63;23.50;;;5.20;99.90;;;;;;5000045;28;20486;-75
2020/12/03 07:40:57;;;;;;;37.33;23.70;;;5.20;99.90;;;;;;5001321;28;20548;-74
2020/12/03 07:43:26;;;;;;;26.80;22.80;;;5.20;99.90;;;;;;5001056;28;20496;-74
2020/12/03 07:45:53;;;;;;;45.07;23.90;;;5.20;99.90;;;;;;4993122;28;20664;-74
2020/12/03 07:48:23;;;;;;;26.27;23.63;;;5.20;99.90;;;;;;5005506;28;20465;-74
2020/12/03 07:51:10;;;;;;;28.23;23.27;;;5.20;99.90;;;;;;5005625;28;20466;-75
2020/12/03 07:53:37;;;;;;;30.67;25.23;;;5.10;99.90;;;;;;5001837;28;20458;-74
2020/12/03 07:56:36;;;;;;;32.77;24.30;;;5.10;99.90;;;;;;4997429;28;20548;-75
2020/12/03 07:59:34;;;;;;;26.47;23.30;;;5.10;99.90;;;;;;4998707;28;20461;-75
2020/12/03 08:02:03;;;;;;;34.10;23.57;;;5.10;99.90;;;;;;5005966;28;20707;-74
2020/12/03 08:04:32;;;;;;;27.30;23.70;;;5.10;99.90;;;;;;5000897;28;20465;-74
2020/12/03 08:07:27;;;;;;;29.00;25.53;;;5.10;99.90;;;;;;5003498;28;20556;-75
2020/12/03 08:09:53;;;;;;;30.10;22.90;;;5.10;99.90;;;;;;5002015;28;20469;-74
2020/12/03 08:12:24;;;;;;;39.73;23.90;;;5.00;99.90;;;;;;4999612;28;20499;-74
2020/12/03 08:14:52;;;;;;;29.70;24.00;;;5.10;99.90;;;;;;4998038;28;20482;-74
2020/12/03 08:17:44;;;;;;;28.33;23.13;;;5.10;99.90;;;;;;5005820;28;20549;-74
2020/12/03 08:20:17;;;;;;;32.17;25.00;;;5.00;99.90;;;;;;5002380;28;20454;-75
2020/12/03 08:22:45;;;;;;;31.47;22.33;;;5.00;99.90;;;;;;4996543;28;20461;-75
2020/12/03 08:25:15;;;;;;;31.90;24.17;;;5.00;99.90;;;;;;4997213;28;20478;-75
2020/12/03 08:27:43;;;;;;;27.00;23.77;;;5.00;99.90;;;;;;5001294;28;21040;-74
2020/12/03 08:30:37;;;;;;;27.07;24.07;;;5.10;99.90;;;;;;5001224;28;20470;-74
2020/12/03 08:33:11;;;;;;;31.73;25.33;;;5.00;99.90;;;;;;4999387;28;20489;-75
2020/12/03 08:35:39;;;;;;;42.93;25.50;;;5.10;99.90;;;;;;4997886;28;20470;-74
2020/12/03 08:38:06;;;;;;;37.70;26.63;;;5.00;99.90;;;;;;4998127;28;20823;-74
2020/12/03 08:40:36;;;;;;;33.63;26.50;;;5.00;99.90;;;;;;5000647;28;20968;-74
2020/12/03 08:43:07;;;;;;;36.40;27.00;;;5.00;99.90;;;;;;5001794;28;20536;-74
2020/12/03 08:45:42;;;;;;;40.60;28.30;;;5.00;99.90;;;;;;5004093;28;20911;-75
2020/12/03 08:48:12;;;;;;;32.63;27.53;;;4.90;99.90;;;;;;5002533;28;20464;-75
2020/12/03 08:50:41;;;;;;;32.07;28.70;;;4.90;99.90;;;;;;5002350;28;20468;-75
2020/12/03 08:53:12;;;;;;;33.67;30.00;;;4.90;99.90;;;;;;4999808;28;20500;-75
2020/12/03 08:55:41;;;;;;;37.63;29.57;;;5.00;99.90;;;;;;5004086;28;20469;-75
2020/12/03 08:58:10;;;;;;;44.73;29.90;;;4.90;99.90;;;;;;5000934;28;20497;-75
2020/12/03 09:00:41;;;;;;;40.83;30.70;;;5.00;99.90;;;;;;5000539;28;20485;-75
2020/12/03 09:03:13;;;;;;;38.17;31.47;;;5.00;99.90;;;;;;5006391;28;20476;-75
2020/12/03 09:05:42;;;;;;;33.50;29.90;;;5.10;99.90;;;;;;4999732;28;20457;-75
2020/12/03 09:08:17;;;;;;;39.87;30.80;;;5.10;99.90;;;;;;5002254;28;20547;-75
2020/12/03 09:10:45;;;;;;;44.67;32.07;;;5.10;99.90;;;;;;4997402;28;20496;-75
2020/12/03 09:13:14;;;;;;;43.03;29.70;;;5.00;99.90;;;;;;4998893;28;20504;-75
2020/12/03 09:15:42;;;;;;;42.30;31.60;;;5.00;99.90;;;;;;4992884;28;20542;-72
2020/12/03 09:18:10;;;;;;;41.77;30.97;;;5.00;99.90;;;;;;5005577;28;20462;-75
2020/12/03 09:20:42;;;;;;;37.87;31.33;;;5.10;99.90;;;;;;4994504;28;20524;-75
2020/12/03 09:23:14;;;;;;;34.83;31.13;;;5.00;99.90;;;;;;4997417;28;21316;-74
2020/12/03 09:25:41;;;;;;;39.63;31.20;;;5.00;99.90;;;;;;4995669;28;20574;-74
2020/12/03 09:28:08;;;;;;;46.53;31.57;;;5.00;99.90;;;;;;4993901;28;20556;-75
2020/12/03 09:30:35;;;;;;;34.03;30.00;;;5.00;99.90;;;;;;4999742;28;20473;-74
2020/12/03 09:33:04;;;;;;;36.97;30.70;;;5.10;99.90;;;;;;5000175;28;20490;-74
2020/12/03 09:35:33;;;;;;;38.60;31.90;;;5.10;99.90;;;;;;4999947;28;20471;-74
2020/12/03 09:38:01;;;;;;;43.80;30.17;;;5.20;99.90;;;;;;4999266;28;20457;-75
2020/12/03 09:40:29;;;;;;;39.90;30.97;;;5.20;99.90;;;;;;4998876;28;20462;-74
2020/12/03 09:42:56;;;;;;;40.67;29.50;;;5.30;99.90;;;;;;4994195;28;21059;-75
2020/12/03 09:45:25;;;;;;;37.93;32.23;;;5.30;99.90;;;;;;4996005;28;20466;-75
2020/12/03 09:47:53;;;;;;;40.90;32.63;;;5.20;99.90;;;;;;4992257;28;20465;-74
2020/12/03 09:50:21;;;;;;;39.07;32.13;;;5.20;99.90;;;;;;4995907;28;20545;-74
2020/12/03 09:52:50;;;;;;;42.77;30.83;;;5.20;99.90;;;;;;4999357;28;20579;-75
2020/12/03 09:55:17;;;;;;;38.77;30.60;;;5.20;99.90;;;;;;4994698;28;20545;-75
2020/12/03 09:57:52;;;;;;;38.03;30.70;;;5.20;99.90;;;;;;4994490;28;20979;-75
2020/12/03 10:00:23;;;;;;;36.83;31.20;;;5.10;99.90;;;;;;4991308;28;20509;-74
2020/12/03 10:03:48;;;;;;;38.80;31.07;;;5.10;99.90;;;;;;4994797;28;20471;-74
2020/12/03 10:06:23;;;;;;;36.20;31.50;;;5.10;99.90;;;;;;4992007;28;20469;-75
2020/12/03 10:09:07;;;;;;;38.17;31.13;;;5.20;99.90;;;;;;4991496;28;20493;-75
2020/12/03 10:12:00;;;;;;;41.27;30.87;;;5.20;99.90;;;;;;4994813;28;20474;-75
2020/12/03 10:14:59;;;;;;;43.43;30.47;;;5.20;99.90;;;;;;4992521;28;20478;-75
2020/12/03 10:17:30;;;;;;;34.67;29.43;;;5.20;99.90;;;;;;5000231;28;21284;-75
2020/12/03 10:19:56;;;;;;;36.50;30.07;;;5.20;99.90;;;;;;4993869;28;20920;-75
2020/12/03 10:22:34;;;;;;;46.57;33.90;;;5.20;99.90;;;;;;4997956;28;20882;-75
2020/12/03 10:25:16;;;;;;;34.13;28.50;;;5.20;99.90;;;;;;4997217;28;20493;-74
2020/12/03 10:27:54;;;;;;;36.73;30.63;;;5.20;99.90;;;;;;4993272;28;20486;-75
2020/12/03 10:30:31;;;;;;;40.13;31.03;;;5.10;99.90;;;;;;4996191;28;21344;-75
2020/12/03 10:33:00;;;;;;;38.93;30.07;;;5.10;99.90;;;;;;4993435;28;20517;-75
2020/12/03 10:35:28;;;;;;;58.87;31.10;;;5.20;99.90;;;;;;4992494;28;20469;-75
2020/12/03 10:37:57;;;;;;;40.13;30.70;;;5.20;99.90;;;;;;4996904;28;20477;-72
2020/12/03 10:40:26;;;;;;;36.90;30.13;;;5.30;99.90;;;;;;4993529;28;20473;-75
2020/12/03 10:42:59;;;;;;;35.83;30.83;;;5.30;99.90;;;;;;4997551;28;20493;-75
2020/12/03 10:45:30;;;;;;;40.03;31.30;;;5.30;99.90;;;;;;5001738;28;20485;-75
2020/12/03 10:48:00;;;;;;;40.43;28.90;;;5.40;99.90;;;;;;4995000;28;20558;-75
2020/12/03 10:50:57;;;;;;;42.93;29.93;;;5.50;99.90;;;;;;5000883;28;20461;-75
2020/12/03 10:53:25;;;;;;;45.37;30.20;;;5.50;99.90;;;;;;4998572;28;20495;-74
2020/12/03 10:55:58;;;;;;;34.13;29.07;;;5.50;99.90;;;;;;4997161;28;20489;-75
2020/12/03 10:58:31;;;;;;;34.33;29.27;;;5.50;99.90;;;;;;5000264;28;20480;-75
2020/12/03 11:01:05;;;;;;;41.17;29.70;;;5.50;99.90;;;;;;4997283;28;20552;-75
2020/12/03 11:03:33;;;;;;;39.13;29.67;;;5.60;99.90;;;;;;5000308;28;20458;-74
2020/12/03 11:06:00;;;;;;;42.80;30.30;;;5.60;99.90;;;;;;4999807;28;20458;-75
2020/12/03 11:08:36;;;;;;;38.83;29.80;;;5.60;99.90;;;;;;5001122;28;20461;-75
2020/12/03 11:11:04;;;;;;;36.73;28.90;;;5.70;99.90;;;;;;4998120;28;20550;-75
2020/12/03 11:13:31;;;;;;;38.63;30.40;;;5.90;99.90;;;;;;4999256;28;20500;-75
2020/12/03 11:16:02;;;;;;;35.27;30.03;;;5.90;99.90;;;;;;5000514;28;20565;-75
2020/12/03 11:18:34;;;;;;;36.57;28.10;;;5.90;99.90;;;;;;4998133;28;20493;-73
2020/12/03 11:21:06;;;;;;;42.30;30.73;;;6.00;99.90;;;;;;5002805;28;20475;-72
2020/12/03 11:23:45;;;;;;;39.90;29.80;;;5.90;99.90;;;;;;4998662;28;20478;-73
2020/12/03 11:26:12;;;;;;;32.30;28.90;;;6.00;99.90;;;;;;5004147;28;20484;-75
2020/12/03 11:28:39;;;;;;;34.87;28.90;;;5.90;99.90;;;;;;5001650;28;20463;-73
2020/12/03 11:31:08;;;;;;;36.47;30.33;;;5.90;99.90;;;;;;5001473;28;20458;-73
2020/12/03 11:33:37;;;;;;;36.57;30.03;;;5.90;99.90;;;;;;4997611;28;20504;-72
2020/12/03 11:36:13;;;;;;;36.67;30.07;;;5.90;99.90;;;;;;5001043;28;20482;-73
2020/12/03 11:38:44;;;;;;;36.20;28.70;;;6.00;99.90;;;;;;4999155;28;21030;-73
2020/12/03 11:41:24;;;;;;;36.40;30.00;;;6.00;99.90;;;;;;4994596;28;20477;-74
2020/12/03 11:44:10;;;;;;;39.10;28.93;;;6.10;99.90;;;;;;5000983;28;20572;-73
2020/12/03 11:46:56;;;;;;;30.83;27.73;;;6.10;99.90;;;;;;5000684;28;20582;-74
2020/12/03 11:49:27;;;;;;;31.83;27.40;;;6.20;99.90;;;;;;5005184;28;20542;-74
2020/12/03 11:51:53;;;;;;;35.80;29.10;;;6.30;99.90;;;;;;4999121;28;20477;-74
2020/12/03 11:54:28;;;;;;;33.37;25.57;;;6.40;99.90;;;;;;4999336;28;20581;-74
2020/12/03 11:56:56;;;;;;;32.43;27.40;;;6.40;99.90;;;;;;4993208;28;20473;-74
2020/12/03 11:59:29;;;;;;;31.57;28.53;;;6.50;99.90;;;;;;4999872;28;20468;-74
2020/12/03 12:01:57;;;;;;;30.50;26.07;;;6.60;99.90;;;;;;5000770;28;20480;-74
2020/12/03 12:04:29;;;;;;;27.30;24.57;;;6.60;99.90;;;;;;4994937;28;20463;-74
2020/12/03 12:07:09;;;;;;;28.27;25.43;;;6.70;99.90;;;;;;5002256;28;20460;-74
2020/12/03 12:09:43;;;;;;;27.07;24.50;;;6.60;99.90;;;;;;4999381;28;20540;-73
2020/12/03 12:12:10;;;;;;;27.83;24.67;;;6.60;99.90;;;;;;4998805;28;20485;-74
2020/12/03 12:14:37;;;;;;;28.40;23.50;;;6.60;99.90;;;;;;4996891;28;20461;-73
2020/12/03 12:17:04;;;;;;;27.17;24.23;;;6.60;99.90;;;;;;4998254;28;20467;-73
2020/12/03 12:19:32;;;;;;;26.00;23.50;;;6.60;99.90;;;;;;5000715;28;20885;-74
2020/12/03 12:21:58;;;;;;;25.00;22.47;;;6.50;99.90;;;;;;4995201;28;21047;-73
2020/12/03 12:24:26;;;;;;;24.03;22.00;;;6.50;99.90;;;;;;4999314;28;20498;-73
2020/12/03 12:26:52;;;;;;;25.43;22.97;;;6.60;99.90;;;;;;4997644;28;20471;-74
2020/12/03 12:29:19;;;;;;;26.97;24.57;;;6.60;99.90;;;;;;4995113;28;20458;-74
2020/12/03 12:31:45;;;;;;;26.17;23.47;;;6.70;99.90;;;;;;5001658;28;20473;-73
2020/12/03 12:34:11;;;;;;;25.50;22.77;;;6.70;99.90;;;;;;4998480;28;20470;-74
2020/12/03 12:36:39;;;;;;;26.17;23.77;;;6.60;99.90;;;;;;4999680;28;20456;-75
2020/12/03 12:39:06;;;;;;;26.90;24.10;;;6.70;99.90;;;;;;4991604;28;20475;-75
2020/12/03 12:41:32;;;;;;;25.83;23.63;;;6.80;99.90;;;;;;4993415;28;21039;-74
2020/12/03 12:43:58;;;;;;;25.63;23.20;;;6.80;99.90;;;;;;4999426;28;20540;-74
2020/12/03 12:46:26;;;;;;;31.40;28.20;;;6.80;99.90;;;;;;5003397;28;20469;-75
2020/12/03 12:48:53;;;;;;;27.83;25.27;;;6.90;99.90;;;;;;5001950;28;20467;-75
2020/12/03 12:51:20;;;;;;;28.20;25.57;;;6.90;99.90;;;;;;4999757;28;20556;-75
2020/12/03 12:53:47;;;;;;;28.60;26.00;;;7.00;99.90;;;;;;4994491;28;20503;-75
2020/12/03 12:56:14;;;;;;;29.43;26.70;;;6.90;99.90;;;;;;4990767;28;20461;-75
2020/12/03 12:58:41;;;;;;;27.20;24.67;;;7.00;99.90;;;;;;5002443;28;20483;-75
2020/12/03 13:01:07;;;;;;;24.97;22.97;;;6.90;99.90;;;;;;4998578;28;20470;-74
2020/12/03 13:03:34;;;;;;;25.50;23.23;;;6.90;99.90;;;;;;4992485;28;20474;-74